Overview Statistics Trail Chart Weather Telemetry Raw packets
 

This is the latest recevied weather packets stored in our database for station/object LU2DKV-10. If no packets are shown the sender has not sent any weather packets the latest 10 day(s).

<< 3 4 5 6 7 8 9 >>
Time Temp. Humidity Pressure Rain* Wind** Luminosity Snow
1788433782 13.89° C 87% 1010 hPa - - 0 W/m² -
1788408777 17.78° C 63% 1009 hPa - - 0 W/m² -
1788406955 18.33° C 66% 1008 hPa - - 0 W/m² -
1788405131 18.33° C 69% 1009 hPa - - 0 W/m² -
1788403309 19.44° C 74% 1009 hPa - - 0 W/m² -
1788401483 19.44° C 73% 1008 hPa - - 0 W/m² -
1788399660 18.89° C 73% 1008 hPa - - 0 W/m² -
1788397833 18.89° C 72% 1008 hPa - - 0 W/m² -
1788396006 19.44° C 70% 1008 hPa - - 0 W/m² -
1788394182 19.44° C 69% 1008 hPa - - 0 W/m² -
1788392358 20° C 67% 1008 hPa - - 0 W/m² -
1788390533 20° C 64% 1008 hPa - - 0 W/m² -
1788388709 20° C 62% 1007 hPa - - 0 W/m² -
1788386887 20.56° C 61% 1007 hPa - - 0 W/m² -
1788385064 21.11° C 59% 1007 hPa - - 0 W/m² -
1788383242 21.67° C 56% 1007 hPa - - 0 W/m² -
1788381419 22.22° C 56% 1007 hPa - - 0 W/m² -
1788379597 22.22° C 55% 1007 hPa - - 0 W/m² -
1788377775 22.78° C 53% 1007 hPa - - 0 W/m² -
1788375952 21.67° C 57% 1008 hPa - - 0 W/m² -
1788374128 21.67° C 58% 1008 hPa - - 0 W/m² -
1788372306 21.67° C 54% 1009 hPa - - 0 W/m² -
1788370482 21.11° C 62% 1009 hPa - - 0 W/m² -
1788368658 20° C 70% 1010 hPa - - 0 W/m² -
1788366834 18.89° C 77% 1011 hPa - - 0 W/m² -

* Rain since midnight (hover to see other rain measurements)
** Current wind speed in m/s (hover to see current wind gust speed)